createdAt,value
2023-02-28T00:00:21.562Z,37.73
2023-02-28T00:01:21.583Z,37.73
2023-02-28T00:02:21.723Z,37.76
2023-02-28T00:03:21.682Z,37.75
2023-02-28T00:04:21.635Z,37.75
2023-02-28T00:05:21.661Z,37.73
2023-02-28T00:06:21.660Z,37.72
2023-02-28T00:07:21.678Z,37.73
2023-02-28T00:08:21.692Z,37.73
2023-02-28T00:09:21.708Z,37.75
2023-02-28T00:10:21.743Z,37.73
2023-02-28T00:11:21.748Z,37.68
2023-02-28T00:12:21.771Z,37.75
2023-02-28T00:13:21.787Z,37.69
2023-02-28T00:14:21.814Z,37.69
2023-02-28T00:15:21.829Z,37.70
2023-02-28T00:16:21.918Z,37.69
2023-02-28T00:17:21.870Z,37.67
2023-02-28T00:18:21.881Z,37.70
2023-02-28T00:19:21.912Z,37.65
2023-02-28T00:20:22.019Z,37.62
2023-02-28T00:21:21.966Z,37.64
2023-02-28T00:22:21.975Z,37.64
2023-02-28T00:23:21.981Z,37.64
2023-02-28T00:24:22.059Z,37.63
2023-02-28T00:25:22.101Z,37.61
2023-02-28T00:26:22.188Z,37.61
2023-02-28T00:27:22.064Z,37.63
2023-02-28T00:28:22.077Z,37.58
2023-02-28T00:29:22.086Z,37.59
2023-02-28T00:30:22.112Z,37.58
2023-02-28T00:31:22.126Z,37.62
2023-02-28T00:32:22.225Z,37.58
2023-02-28T00:33:22.168Z,37.59
2023-02-28T00:34:22.187Z,37.60
2023-02-28T00:35:22.234Z,37.58
2023-02-28T00:36:22.225Z,37.60
2023-02-28T00:37:22.273Z,37.59
2023-02-28T00:38:22.250Z,37.58
2023-02-28T00:39:22.279Z,37.55
2023-02-28T00:40:22.357Z,37.54
2023-02-28T00:41:22.362Z,37.54
2023-02-28T00:42:22.352Z,37.57
2023-02-28T00:43:22.375Z,37.57
2023-02-28T00:44:22.457Z,37.57
2023-02-28T00:45:22.415Z,37.57
2023-02-28T00:46:22.498Z,37.52
2023-02-28T00:47:22.458Z,37.53
2023-02-28T00:48:22.495Z,37.53
2023-02-28T00:49:22.516Z,37.55
2023-02-28T00:50:22.557Z,37.49
2023-02-28T00:51:22.563Z,37.54
2023-02-28T00:52:22.595Z,37.54
2023-02-28T00:53:22.610Z,37.54
2023-02-28T00:54:23.532Z,37.48
2023-02-28T00:55:22.732Z,37.49
2023-02-28T00:56:22.695Z,37.46
2023-02-28T00:57:22.728Z,37.49
2023-02-28T00:58:22.758Z,37.45
2023-02-28T00:59:22.778Z,37.43
2023-02-28T01:00:22.806Z,37.41
2023-02-28T01:01:22.873Z,37.41
2023-02-28T01:02:22.874Z,37.46
2023-02-28T01:03:22.906Z,37.50
2023-02-28T01:04:23.077Z,37.46
2023-02-28T01:05:22.956Z,37.47
2023-02-28T01:06:22.996Z,37.44
2023-02-28T01:07:23.548Z,37.45
2023-02-28T01:08:23.044Z,37.46
2023-02-28T01:09:23.069Z,37.44
2023-02-28T01:10:23.100Z,37.43
2023-02-28T01:11:23.145Z,37.42
2023-02-28T01:12:23.154Z,37.41
2023-02-28T01:13:23.185Z,37.42
2023-02-28T01:14:23.213Z,37.42
2023-02-28T01:15:23.408Z,37.42
2023-02-28T01:16:23.264Z,37.41
2023-02-28T01:17:23.284Z,37.37
2023-02-28T01:18:23.313Z,37.38
2023-02-28T01:19:23.396Z,37.45
2023-02-28T01:20:23.372Z,37.37
2023-02-28T01:21:23.400Z,37.41
2023-02-28T01:22:23.428Z,37.38
2023-02-28T01:23:23.530Z,37.40
2023-02-28T01:24:23.484Z,37.42
2023-02-28T01:25:23.572Z,37.39
2023-02-28T01:26:23.548Z,37.35
2023-02-28T01:27:23.601Z,37.34
2023-02-28T01:28:24.052Z,37.31
2023-02-28T01:29:23.638Z,37.37
2023-02-28T01:30:23.753Z,37.35
2023-02-28T01:31:23.741Z,37.33
2023-02-28T01:32:23.807Z,37.28
2023-02-28T01:33:23.779Z,37.27
2023-02-28T01:34:23.807Z,37.34
2023-02-28T01:35:23.837Z,37.31
2023-02-28T01:36:23.894Z,37.28
2023-02-28T01:37:23.888Z,37.32
2023-02-28T01:38:23.922Z,37.29
2023-02-28T01:39:23.960Z,37.29
2023-02-28T01:40:24.002Z,37.31
2023-02-28T01:41:24.101Z,37.29
2023-02-28T01:42:24.097Z,37.28
2023-02-28T01:43:24.157Z,37.30
2023-02-28T01:44:24.096Z,37.27
2023-02-28T01:45:24.175Z,37.24
2023-02-28T01:46:24.219Z,37.28
2023-02-28T01:47:24.169Z,37.32
2023-02-28T01:48:24.195Z,37.25
2023-02-28T01:49:24.233Z,37.27
2023-02-28T01:50:25.058Z,37.24
2023-02-28T01:51:24.273Z,37.23
2023-02-28T01:52:24.298Z,37.22
2023-02-28T02:55:25.963Z,36.68
2023-02-28T02:56:25.991Z,36.65
2023-02-28T02:57:26.019Z,36.63
2023-02-28T02:58:26.065Z,36.65
2023-02-28T02:59:26.103Z,36.65
2023-02-28T03:00:26.145Z,36.62
2023-02-28T03:01:26.205Z,36.59
2023-02-28T03:02:26.229Z,36.63
2023-02-28T03:03:26.314Z,36.59
2023-02-28T03:04:26.327Z,36.54
2023-02-28T03:05:26.375Z,36.55
2023-02-28T03:06:26.409Z,36.58
2023-02-28T03:07:26.447Z,36.50
2023-02-28T03:08:26.499Z,36.53
2023-02-28T03:09:26.613Z,36.47
2023-02-28T03:10:26.592Z,36.51
2023-02-28T03:11:26.969Z,36.50
2023-02-28T03:12:26.703Z,36.45
2023-02-28T03:13:26.771Z,36.48
2023-02-28T03:14:26.812Z,36.43
2023-02-28T03:15:26.877Z,36.43
2023-02-28T03:16:27.010Z,36.44
2023-02-28T03:17:27.013Z,36.42
2023-02-28T03:18:27.092Z,36.45
2023-02-28T03:19:27.149Z,36.44
2023-02-28T03:20:27.247Z,36.42
2023-02-28T03:21:27.646Z,36.39
2023-02-28T03:22:27.367Z,36.39
2023-02-28T03:23:27.445Z,36.43
2023-02-28T03:24:27.485Z,36.34
2023-02-28T03:25:27.553Z,36.33
2023-02-28T03:26:27.658Z,36.35
2023-02-28T03:27:27.682Z,36.36
2023-02-28T03:28:27.755Z,36.37
2023-02-28T03:29:27.802Z,36.34
2023-02-28T03:30:27.871Z,36.33
2023-02-28T03:31:28.468Z,36.29
2023-02-28T03:32:28.052Z,36.33
2023-02-28T03:33:28.098Z,36.28
2023-02-28T03:34:28.162Z,36.29
2023-02-28T04:00:29.967Z,36.11
2023-02-28T04:01:30.496Z,36.14
2023-02-28T04:02:30.070Z,36.11
2023-02-28T04:03:30.161Z,36.06
2023-02-28T04:04:30.308Z,36.08
2023-02-28T04:09:30.568Z,36.04
2023-02-28T04:47:33.332Z,35.90
2023-02-28T04:48:33.401Z,35.83
2023-02-28T04:49:33.492Z,35.83
2023-02-28T04:50:33.564Z,35.84
2023-02-28T04:51:33.679Z,35.85
2023-02-28T04:52:33.714Z,35.80
2023-02-28T04:57:34.128Z,35.80
2023-02-28T04:59:34.266Z,35.77
2023-02-28T05:00:34.415Z,35.79
2023-02-28T05:01:34.412Z,35.77
2023-02-28T05:02:34.521Z,35.71
2023-02-28T05:03:34.583Z,35.73
2023-02-28T05:04:34.742Z,35.77
2023-02-28T05:05:34.757Z,35.77
2023-02-28T05:06:35.685Z,35.75
2023-02-28T05:07:34.910Z,35.75
2023-02-28T05:08:34.993Z,35.73
2023-02-28T05:09:35.050Z,35.74
2023-02-28T05:10:35.139Z,35.75
2023-02-28T05:11:35.204Z,35.69
2023-02-28T05:12:36.128Z,35.71
2023-02-28T05:13:35.345Z,35.71
2023-02-28T05:14:35.433Z,35.71
2023-02-28T05:15:35.851Z,35.65
2023-02-28T05:16:35.703Z,35.70
2023-02-28T05:17:35.652Z,35.68
2023-02-28T05:18:35.771Z,35.68
2023-02-28T05:19:35.804Z,35.66
2023-02-28T05:20:36.634Z,35.65
2023-02-28T05:21:35.957Z,35.65
2023-02-28T05:22:36.035Z,35.64
2023-02-28T05:23:36.165Z,35.68
2023-02-28T05:24:36.185Z,35.62
2023-02-28T05:25:36.262Z,35.60
2023-02-28T05:26:36.343Z,35.59
2023-02-28T05:27:36.421Z,35.65
2023-02-28T05:28:36.497Z,35.63
2023-02-28T05:29:36.564Z,35.64
2023-02-28T05:30:36.648Z,35.60
2023-02-28T05:31:36.843Z,35.65
2023-02-28T05:32:36.877Z,35.64
2023-02-28T05:33:36.864Z,35.62
2023-02-28T05:34:36.992Z,35.59
2023-02-28T05:35:37.029Z,35.59
2023-02-28T05:36:37.099Z,35.59
2023-02-28T05:37:37.166Z,35.57
2023-02-28T05:38:38.874Z,35.59
2023-02-28T05:39:37.643Z,35.56
2023-02-28T05:40:37.388Z,35.55
2023-02-28T05:41:37.470Z,35.60
2023-02-28T05:42:37.562Z,35.59
2023-02-28T05:43:37.639Z,35.60
2023-02-28T05:44:37.734Z,35.54
2023-02-28T05:45:37.826Z,35.57
2023-02-28T05:46:37.892Z,35.59
2023-02-28T05:47:37.957Z,35.57
2023-02-28T05:48:38.116Z,35.52
2023-02-28T05:49:38.127Z,35.51
2023-02-28T06:06:39.428Z,35.49
2023-02-28T06:07:39.499Z,35.41
2023-02-28T06:08:42.151Z,35.42
2023-02-28T06:10:39.885Z,35.46
2023-02-28T06:11:40.818Z,35.43
2023-02-28T06:12:40.041Z,35.45
2023-02-28T06:13:40.131Z,35.47
2023-02-28T06:14:40.210Z,35.42
2023-02-28T07:25:43.324Z,44.65
2023-02-28T07:26:43.392Z,44.53
2023-02-28T07:27:43.418Z,44.53
2023-02-28T07:28:43.454Z,44.51
2023-02-28T07:29:43.466Z,44.54
2023-02-28T07:30:44.177Z,44.59
2023-02-28T07:31:43.558Z,44.49
2023-02-28T07:32:45.301Z,44.59
2023-02-28T07:33:43.503Z,44.56
2023-02-28T07:34:43.505Z,44.51
2023-02-28T07:35:43.551Z,44.53
2023-02-28T07:36:43.614Z,44.53
2023-02-28T07:37:43.563Z,44.53
2023-02-28T07:38:43.588Z,44.56
2023-02-28T07:39:43.670Z,44.57
2023-02-28T07:40:43.619Z,44.46
2023-02-28T07:41:43.646Z,44.41
2023-02-28T07:42:43.759Z,44.40
2023-02-28T07:44:43.751Z,44.50
2023-02-28T07:45:43.777Z,44.45
2023-02-28T07:46:43.891Z,44.37
2023-02-28T07:47:43.843Z,44.32
2023-02-28T07:48:43.949Z,44.37
2023-02-28T07:49:43.929Z,44.36
2023-02-28T07:50:43.946Z,44.31
2023-02-28T07:51:44.000Z,44.34
2023-02-28T07:52:44.045Z,44.24
2023-02-28T07:53:44.084Z,44.24
2023-02-28T07:54:44.141Z,44.24
2023-02-28T07:55:44.174Z,44.12
2023-02-28T07:56:44.217Z,44.11
2023-02-28T07:57:44.880Z,44.11
2023-02-28T07:58:44.324Z,44.06
2023-02-28T07:59:46.111Z,44.00
2023-02-28T08:00:44.455Z,43.93
2023-02-28T08:01:44.559Z,43.94
2023-02-28T08:02:44.516Z,43.85
2023-02-28T08:03:44.570Z,43.80
2023-02-28T08:04:44.636Z,43.84
2023-02-28T08:05:44.682Z,43.80
2023-02-28T08:06:44.724Z,43.82
2023-02-28T08:21:45.454Z,43.14
2023-02-28T08:22:46.058Z,43.32
2023-02-28T08:24:45.584Z,43.62
2023-02-28T08:25:45.615Z,43.68
2023-02-28T08:26:45.645Z,43.84
2023-02-28T08:27:45.673Z,43.93
2023-02-28T08:28:45.678Z,43.95
2023-02-28T08:29:45.710Z,44.12
2023-02-28T08:30:46.211Z,44.23
2023-02-28T08:31:45.849Z,44.45
2023-02-28T08:32:45.761Z,44.54
2023-02-28T08:33:45.746Z,44.57
2023-02-28T08:34:47.877Z,44.62
2023-02-28T08:35:45.794Z,44.69
2023-02-28T08:36:45.840Z,44.85
2023-02-28T08:37:45.696Z,44.97
2023-02-28T08:38:45.697Z,45.10
2023-02-28T08:39:45.720Z,45.20
2023-02-28T08:40:45.787Z,45.22
2023-02-28T08:41:47.936Z,45.38
2023-02-28T08:42:45.847Z,45.54
2023-02-28T08:43:46.729Z,45.56
2023-02-28T08:44:46.231Z,45.69
2023-02-28T08:45:45.933Z,45.95
2023-02-28T08:46:45.940Z,45.95
2023-02-28T08:47:45.885Z,46.19
2023-02-28T08:48:45.840Z,46.20
2023-02-28T08:49:45.847Z,46.30
2023-02-28T08:50:50.412Z,46.57
2023-02-28T08:51:46.842Z,46.56
2023-02-28T08:52:45.846Z,46.74
2023-02-28T08:53:45.885Z,46.92
2023-02-28T08:54:45.842Z,46.90
2023-02-28T08:55:45.898Z,46.91
2023-02-28T08:56:45.820Z,46.18
2023-02-28T08:57:45.815Z,46.11
2023-02-28T08:58:46.712Z,45.38
2023-02-28T08:59:45.824Z,43.76
2023-02-28T09:00:45.846Z,43.15
2023-02-28T09:01:45.826Z,42.22
2023-02-28T09:02:45.833Z,42.14
2023-02-28T09:03:45.957Z,42.24
2023-02-28T09:04:45.861Z,42.57
2023-02-28T09:05:46.809Z,42.57
2023-02-28T09:06:45.874Z,42.75
2023-02-28T09:07:45.874Z,42.79
2023-02-28T09:08:46.051Z,42.96
2023-02-28T09:09:46.031Z,43.06
2023-02-28T09:10:46.017Z,43.15
2023-02-28T09:11:46.057Z,43.01
2023-02-28T09:12:46.085Z,43.09
2023-02-28T09:13:46.139Z,42.98
2023-02-28T09:14:46.174Z,42.93
2023-02-28T09:15:46.221Z,43.11
2023-02-28T09:16:46.304Z,43.16
2023-02-28T09:17:47.203Z,43.18
2023-02-28T09:18:46.391Z,43.14
2023-02-28T09:19:46.454Z,43.24
2023-02-28T09:20:46.504Z,41.15
2023-02-28T09:21:46.512Z,40.30
2023-02-28T09:22:46.561Z,39.16
2023-02-28T09:23:46.562Z,37.37
2023-02-28T09:24:46.614Z,36.40
2023-02-28T09:25:46.686Z,35.08
2023-02-28T09:27:01.572Z,37.02
2023-02-28T09:27:47.775Z,37.06
2023-02-28T09:28:46.806Z,37.37
2023-02-28T09:29:47.718Z,37.55
2023-02-28T09:30:46.829Z,37.64
2023-02-28T09:31:46.794Z,37.89
2023-02-28T09:32:46.790Z,38.07
2023-02-28T09:33:47.731Z,38.24
2023-02-28T09:34:46.778Z,38.54
2023-02-28T09:35:46.854Z,38.73
2023-02-28T09:36:47.466Z,38.97
2023-02-28T09:37:46.833Z,39.14
2023-02-28T09:38:48.129Z,39.43
2023-02-28T09:39:46.885Z,39.66
2023-02-28T09:40:46.919Z,39.87
2023-02-28T09:41:46.972Z,39.84
2023-02-28T09:42:47.032Z,40.33
2023-02-28T09:43:47.723Z,40.20
2023-02-28T09:44:47.126Z,40.60
2023-02-28T09:45:47.169Z,40.53
2023-02-28T09:46:47.181Z,40.72
2023-02-28T09:47:47.275Z,40.84
2023-02-28T09:48:47.252Z,41.09
2023-02-28T09:49:47.316Z,41.11
2023-02-28T09:50:47.282Z,41.41
2023-02-28T09:51:47.306Z,41.44
2023-02-28T09:52:47.308Z,41.66
2023-02-28T09:53:50.488Z,41.80
2023-02-28T09:54:48.337Z,41.96
2023-02-28T09:55:47.460Z,42.08
2023-02-28T09:56:47.293Z,42.27
2023-02-28T09:57:47.284Z,42.36
2023-02-28T09:58:47.256Z,42.57
2023-02-28T09:59:47.256Z,42.66
2023-02-28T10:00:47.227Z,42.96
2023-02-28T10:01:47.277Z,43.14
2023-02-28T10:02:47.211Z,43.21
2023-02-28T10:03:47.194Z,43.33
2023-02-28T10:04:47.263Z,43.47
2023-02-28T10:05:47.273Z,43.65
2023-02-28T10:06:47.180Z,43.76
2023-02-28T10:07:47.141Z,43.92
2023-02-28T10:08:47.124Z,44.01
2023-02-28T10:09:47.109Z,44.13
2023-02-28T10:10:47.109Z,44.19
2023-02-28T10:12:47.072Z,44.36
2023-02-28T10:13:47.045Z,44.63
2023-02-28T10:14:47.020Z,44.53
2023-02-28T10:15:47.008Z,44.82
2023-02-28T10:16:46.992Z,44.60
2023-02-28T10:17:55.323Z,44.58
2023-02-28T10:18:47.967Z,44.20
2023-02-28T10:19:46.943Z,41.80
2023-02-28T10:20:46.952Z,41.65
2023-02-28T10:21:46.932Z,42.57
2023-02-28T10:22:46.995Z,41.92
2023-02-28T10:24:46.890Z,42.20
2023-02-28T10:25:46.884Z,42.14
2023-02-28T10:26:46.957Z,42.28
2023-02-28T10:27:46.884Z,42.39
2023-02-28T10:28:46.834Z,42.55
2023-02-28T10:29:46.815Z,42.79
2023-02-28T10:30:46.806Z,42.86
2023-02-28T10:31:46.807Z,42.94
2023-02-28T10:32:46.759Z,43.10
2023-02-28T10:33:46.753Z,43.19
2023-02-28T12:40:45.468Z,42.34
2023-02-28T13:13:44.547Z,41.19
2023-02-28T13:14:44.493Z,41.26
2023-02-28T13:15:44.450Z,41.20
2023-02-28T13:16:44.412Z,41.21
2023-02-28T13:17:44.368Z,41.16
2023-02-28T13:18:44.309Z,41.21
2023-02-28T13:19:44.279Z,41.15
2023-02-28T13:20:44.225Z,41.20
2023-02-28T13:21:44.176Z,41.15
2023-02-28T13:22:44.312Z,41.10
2023-02-28T13:23:44.102Z,41.15
2023-02-28T13:24:44.066Z,41.12
2023-02-28T13:25:44.018Z,41.08
2023-02-28T13:26:43.973Z,41.17
2023-02-28T13:27:43.922Z,41.08
2023-02-28T13:28:43.943Z,41.19
2023-02-28T13:29:43.852Z,41.17
2023-02-28T13:30:43.818Z,41.16
2023-02-28T13:32:43.714Z,41.12
2023-02-28T13:35:43.615Z,41.05
2023-02-28T13:37:43.497Z,41.15
2023-02-28T13:38:43.449Z,41.15
2023-02-28T13:39:43.407Z,41.08
2023-02-28T13:40:43.383Z,41.14
2023-02-28T16:20:43.382Z,43.08
2023-02-28T16:38:43.419Z,43.25
2023-02-28T16:51:43.385Z,43.39
2023-02-28T16:56:43.400Z,43.39
2023-02-28T16:57:43.397Z,43.48
2023-02-28T17:10:43.424Z,43.55
2023-02-28T17:11:43.373Z,43.52
2023-02-28T17:12:43.417Z,43.49
2023-02-28T17:13:43.537Z,43.53
2023-02-28T17:14:43.498Z,43.56
2023-02-28T17:15:43.747Z,43.52
2023-02-28T17:19:43.470Z,43.60
2023-02-28T17:20:43.458Z,43.45
2023-02-28T17:21:43.493Z,43.48
2023-02-28T17:22:43.438Z,43.48
2023-02-28T17:24:43.381Z,43.55
2023-02-28T17:25:43.477Z,43.45
2023-02-28T17:26:43.930Z,43.50
2023-02-28T17:27:43.493Z,43.49
2023-02-28T17:28:43.548Z,43.47
2023-02-28T17:29:43.588Z,43.44
2023-02-28T17:30:43.677Z,43.53
2023-02-28T17:31:43.700Z,43.51
2023-02-28T17:32:43.781Z,43.52
2023-02-28T17:33:43.812Z,43.45
2023-02-28T17:34:43.863Z,43.49
2023-02-28T17:35:43.950Z,43.48
2023-02-28T17:36:43.943Z,43.46
2023-02-28T17:37:44.048Z,43.44
2023-02-28T17:39:43.973Z,43.44
2023-02-28T17:40:43.958Z,43.48
2023-02-28T17:41:43.950Z,43.46
2023-02-28T17:42:44.019Z,43.49
2023-02-28T17:43:43.924Z,43.42
2023-02-28T17:44:43.927Z,43.38
2023-02-28T17:45:43.924Z,43.33
2023-02-28T17:46:43.974Z,43.36
2023-02-28T17:47:43.976Z,43.37
2023-02-28T17:48:44.030Z,43.41
2023-02-28T17:49:44.082Z,43.33
2023-02-28T17:50:44.141Z,43.33
2023-02-28T17:51:44.201Z,43.32
2023-02-28T17:52:44.272Z,43.27
2023-02-28T17:53:44.305Z,43.32
2023-02-28T17:54:44.426Z,43.32
2023-02-28T17:55:44.398Z,43.23
2023-02-28T17:56:44.936Z,43.27
2023-02-28T17:57:44.462Z,43.28
2023-02-28T17:58:44.484Z,43.32
2023-02-28T17:59:44.504Z,43.27
2023-02-28T18:00:44.539Z,43.27
2023-02-28T18:01:44.650Z,43.24
2023-02-28T18:02:44.619Z,43.21
2023-02-28T18:03:44.583Z,43.20
2023-02-28T18:04:44.586Z,43.16
2023-02-28T18:05:44.586Z,43.13
2023-02-28T18:06:44.598Z,43.16
2023-02-28T18:15:44.677Z,43.14
2023-02-28T18:16:44.707Z,43.15
2023-02-28T18:17:44.665Z,43.09
2023-02-28T18:18:44.696Z,43.12
2023-02-28T18:19:45.444Z,43.09
2023-02-28T18:20:44.684Z,43.07
2023-02-28T18:21:44.713Z,43.09
2023-02-28T18:39:44.828Z,42.80
2023-02-28T18:40:44.834Z,42.80
2023-02-28T18:41:44.841Z,42.87
2023-02-28T18:42:44.907Z,42.79
2023-02-28T18:43:44.873Z,42.75
2023-02-28T18:44:44.956Z,42.83
2023-02-28T18:45:44.897Z,42.81
2023-02-28T18:46:45.032Z,42.79
2023-02-28T18:47:44.920Z,42.78
2023-02-28T18:48:44.931Z,42.82
2023-02-28T18:49:44.974Z,42.79
2023-02-28T18:50:44.956Z,42.90
2023-02-28T18:51:45.060Z,42.88
2023-02-28T18:52:44.955Z,42.94
2023-02-28T18:53:44.979Z,42.99
2023-02-28T18:54:45.456Z,42.97
2023-02-28T18:55:45.001Z,42.90
2023-02-28T18:56:45.944Z,42.91
2023-02-28T18:57:45.025Z,42.92
2023-02-28T18:58:45.039Z,42.89
2023-02-28T19:18:45.113Z,42.64
2023-02-28T19:19:45.129Z,42.59
2023-02-28T19:20:45.130Z,42.61
2023-02-28T19:21:45.133Z,42.54
2023-02-28T19:22:45.142Z,42.54
2023-02-28T19:23:45.147Z,42.53
2023-02-28T19:24:45.222Z,42.44
2023-02-28T19:25:45.146Z,42.45
2023-02-28T19:26:45.157Z,42.53
2023-02-28T19:27:45.168Z,42.45
2023-02-28T19:28:45.193Z,42.43
2023-02-28T19:29:45.187Z,42.39
2023-02-28T19:30:45.197Z,42.34
2023-02-28T19:31:45.317Z,42.45
2023-02-28T19:32:45.270Z,42.36
2023-02-28T19:33:45.207Z,42.38
2023-02-28T19:34:45.221Z,42.37
2023-02-28T19:35:45.258Z,42.35
2023-02-28T19:36:45.228Z,42.31
2023-02-28T19:37:45.236Z,42.28
2023-02-28T19:38:45.236Z,42.29
2023-02-28T19:39:45.252Z,42.25
2023-02-28T19:40:45.326Z,42.26
2023-02-28T19:41:45.269Z,42.23
2023-02-28T19:42:45.254Z,42.29
2023-02-28T19:43:45.271Z,42.26
2023-02-28T19:44:45.271Z,42.27
2023-02-28T19:45:45.344Z,42.25
2023-02-28T19:46:45.274Z,42.22
2023-02-28T19:47:45.283Z,42.19
2023-02-28T19:48:45.284Z,42.21
2023-02-28T19:49:45.325Z,42.23
2023-02-28T19:50:45.294Z,42.18
2023-02-28T19:51:45.362Z,42.18
2023-02-28T19:52:45.309Z,42.25
2023-02-28T19:53:45.316Z,42.18
2023-02-28T19:54:45.346Z,42.11
2023-02-28T19:55:45.391Z,42.18
2023-02-28T19:56:45.337Z,42.17
2023-02-28T19:57:45.343Z,42.08
2023-02-28T19:58:45.415Z,42.09
2023-02-28T19:59:45.351Z,42.09
2023-02-28T20:00:45.992Z,42.16
2023-02-28T20:01:45.372Z,42.08
2023-02-28T20:02:45.369Z,42.03
2023-02-28T20:03:45.424Z,42.09
2023-02-28T20:04:45.458Z,42.12
2023-02-28T20:05:45.394Z,42.03
2023-02-28T20:06:45.390Z,42.01
2023-02-28T20:07:45.405Z,41.98
2023-02-28T20:08:45.412Z,41.96
2023-02-28T20:09:45.425Z,41.98
2023-02-28T20:10:45.416Z,41.97
2023-02-28T20:11:45.413Z,41.98
2023-02-28T20:12:45.444Z,42.00
2023-02-28T20:13:45.490Z,41.95
2023-02-28T20:14:45.434Z,41.94
2023-02-28T20:15:45.446Z,41.94
2023-02-28T20:16:45.508Z,41.91
2023-02-28T20:17:45.455Z,42.02
2023-02-28T20:18:45.472Z,42.01
2023-02-28T20:19:45.479Z,41.98
2023-02-28T20:20:46.484Z,41.96
2023-02-28T20:21:45.509Z,41.93
2023-02-28T20:22:45.515Z,41.93
2023-02-28T20:23:45.524Z,41.89
2023-02-28T20:24:45.986Z,41.91
2023-02-28T20:25:45.534Z,41.94
2023-02-28T20:26:45.541Z,41.94
2023-02-28T20:27:45.558Z,41.87
2023-02-28T20:28:45.578Z,41.91
2023-02-28T20:29:45.592Z,41.93
2023-02-28T20:30:45.634Z,41.93
2023-02-28T20:31:45.615Z,41.95
2023-02-28T20:32:45.626Z,41.87
2023-02-28T20:33:46.901Z,41.90
2023-02-28T20:34:45.643Z,41.90
2023-02-28T20:49:46.846Z,41.76
2023-02-28T20:50:45.877Z,41.72
2023-02-28T20:51:45.865Z,41.76
2023-02-28T20:52:45.879Z,41.72
2023-02-28T20:53:45.890Z,41.66
2023-02-28T20:54:45.892Z,41.68
2023-02-28T20:55:45.898Z,41.66
2023-02-28T20:56:45.908Z,41.71
2023-02-28T20:57:46.494Z,41.65
2023-02-28T20:58:45.949Z,41.70
2023-02-28T20:59:45.947Z,41.72
2023-02-28T21:00:46.002Z,41.73
2023-02-28T21:01:46.029Z,41.59
2023-02-28T21:02:46.005Z,41.68
2023-02-28T21:03:45.981Z,41.60
2023-02-28T21:04:46.000Z,41.61
2023-02-28T21:05:46.072Z,41.61
2023-02-28T21:06:46.056Z,41.58
2023-02-28T21:07:46.075Z,41.59
2023-02-28T21:08:46.054Z,41.64
2023-02-28T21:09:46.132Z,41.60
2023-02-28T21:10:46.070Z,41.51
2023-02-28T21:11:46.086Z,41.56
2023-02-28T21:12:46.096Z,41.58
2023-02-28T21:13:46.175Z,41.51
2023-02-28T21:14:46.125Z,41.54
2023-02-28T21:15:46.200Z,41.47
2023-02-28T21:16:46.166Z,41.47
2023-02-28T21:17:46.154Z,41.46
2023-02-28T21:18:46.209Z,41.47
2023-02-28T21:19:46.201Z,41.50
2023-02-28T21:20:46.199Z,41.46
2023-02-28T21:21:46.230Z,41.47
2023-02-28T21:22:46.219Z,41.52
2023-02-28T21:23:46.233Z,41.48
2023-02-28T21:24:46.250Z,41.51
2023-02-28T21:25:46.253Z,41.49
2023-02-28T21:26:46.304Z,41.47
2023-02-28T21:27:46.283Z,41.51
2023-02-28T21:28:46.310Z,41.42
2023-02-28T21:29:46.323Z,41.41
2023-02-28T21:30:46.361Z,41.40
2023-02-28T21:31:47.095Z,41.41
2023-02-28T21:32:46.369Z,41.38
2023-02-28T21:33:46.394Z,41.41
2023-02-28T21:34:46.411Z,41.43
2023-02-28T21:35:46.447Z,41.44
2023-02-28T21:36:46.444Z,41.43
2023-02-28T21:37:46.462Z,41.38
2023-02-28T21:38:46.499Z,41.34
2023-02-28T21:39:46.518Z,41.33
2023-02-28T21:40:46.522Z,41.33
2023-02-28T21:41:46.550Z,41.38
2023-02-28T21:42:46.563Z,41.33
2023-02-28T21:43:46.583Z,41.31
2023-02-28T21:44:46.668Z,41.26
2023-02-28T21:45:46.604Z,41.29
2023-02-28T21:46:46.688Z,41.30
2023-02-28T21:47:46.650Z,41.31
2023-02-28T21:48:46.672Z,41.23
2023-02-28T21:49:46.690Z,41.24
2023-02-28T21:50:46.700Z,41.28
2023-02-28T21:51:46.719Z,41.30
2023-02-28T21:52:46.770Z,41.21
2023-02-28T21:53:46.734Z,41.26
2023-02-28T21:54:46.776Z,41.31
2023-02-28T21:55:46.765Z,41.20
2023-02-28T21:56:46.796Z,41.24
2023-02-28T21:57:47.513Z,41.15
2023-02-28T21:58:46.844Z,41.25
2023-02-28T21:59:46.858Z,41.20
2023-02-28T22:00:46.876Z,41.18
2023-02-28T22:01:46.949Z,41.23
2023-02-28T22:02:46.940Z,41.16
2023-02-28T22:03:46.933Z,41.21
2023-02-28T22:04:46.948Z,41.21
2023-02-28T22:05:46.955Z,41.14
2023-02-28T22:06:46.994Z,41.21
2023-02-28T22:07:46.997Z,41.17
2023-02-28T22:08:47.017Z,41.13
2023-02-28T22:09:47.023Z,41.11
2023-02-28T22:10:48.014Z,41.17
2023-02-28T22:11:47.078Z,41.10
2023-02-28T22:12:47.099Z,41.03
2023-02-28T22:13:47.107Z,41.12
2023-02-28T22:14:47.120Z,41.06
2023-02-28T22:15:47.159Z,41.06
2023-02-28T22:16:51.907Z,41.08
2023-02-28T22:17:48.184Z,41.03
2023-02-28T22:18:47.167Z,41.06
2023-02-28T22:19:47.187Z,41.07
2023-02-28T22:20:47.178Z,41.08
2023-02-28T22:21:47.177Z,41.11
2023-02-28T22:22:47.229Z,41.03
2023-02-28T22:23:47.194Z,41.08
2023-02-28T22:24:47.174Z,41.07
2023-02-28T22:25:47.244Z,41.09
2023-02-28T22:26:47.197Z,41.06
2023-02-28T22:27:47.202Z,40.94
2023-02-28T22:28:47.197Z,41.04
2023-02-28T22:29:47.997Z,41.02
